Prairie View, Illinois
Current Conditions -  °F | °C
As of 6:05 AM on Saturday 25 Oct 2014 (Local Time) from KPWK Reporting Station
Broken Clouds Broken Clouds  
Wind Chill: 58°   Ceiling: 1000
Heat Index: 58°   Visibility: 8mi
Dew Point: 53°   Wind: 6mph
Humidity: 84%   Direction: 260°W
Pressure: 29.92"   Gusts: NA
Location:  42.1941°N, 87.9317°W
Report Text: KPWK 251105Z AUTO 26005KT 8SM BKN010 14/12 A2992 RMK AO2 T01440117
Loading
Personal Weather Stations






























Interactive Weather Map
Tropical Storm Tracking
New forecast layout! Learn more

10-Day Weather Forecast

Advertisements
Track Severe Weather on mobile